createdAt,value
2019-01-14T00:00:16.996Z,99.90
2019-01-14T00:03:01.737Z,99.90
2019-01-14T00:05:46.727Z,99.90
2019-01-14T00:08:31.663Z,99.90
2019-01-14T00:11:16.805Z,99.90
2019-01-14T00:14:01.744Z,99.90
2019-01-14T00:16:46.359Z,99.90
2019-01-14T00:19:31.326Z,99.90
2019-01-14T00:22:16.205Z,99.90
2019-01-14T00:25:00.768Z,99.90
2019-01-14T00:27:45.376Z,99.90
2019-01-14T00:30:29.990Z,99.90
2019-01-14T00:33:14.867Z,99.90
2019-01-14T00:35:59.369Z,99.90
2019-01-14T00:38:44.102Z,99.90
2019-01-14T00:41:29.226Z,99.90
2019-01-14T00:44:14.069Z,99.90
2019-01-14T00:46:58.749Z,99.90
2019-01-14T00:49:43.475Z,99.90
2019-01-14T00:52:28.516Z,99.90
2019-01-14T00:55:13.507Z,99.90
2019-01-14T00:57:58.041Z,99.90
2019-01-14T01:00:42.421Z,99.90
2019-01-14T01:03:26.866Z,99.90
2019-01-14T01:06:11.581Z,99.90
2019-01-14T01:08:56.460Z,99.90
2019-01-14T01:11:41.030Z,99.90
2019-01-14T01:14:25.777Z,99.90
2019-01-14T01:17:10.921Z,99.90
2019-01-14T01:19:55.875Z,99.90
2019-01-14T01:22:40.515Z,99.90
2019-01-14T01:25:25.644Z,99.90
2019-01-14T01:28:10.114Z,99.90
2019-01-14T01:30:55.269Z,99.90
2019-01-14T01:33:40.260Z,99.90
2019-01-14T01:36:31.694Z,99.90
2019-01-14T01:39:11.860Z,99.90
2019-01-14T01:41:56.594Z,99.90
2019-01-14T01:44:41.199Z,99.90
2019-01-14T01:47:26.251Z,99.90
2019-01-14T01:50:15.279Z,99.90
2019-01-14T01:53:00.379Z,99.90
2019-01-14T01:55:45.319Z,99.90
2019-01-14T01:58:29.885Z,99.90
2019-01-14T02:01:14.396Z,99.90
2019-01-14T02:03:58.950Z,99.90
2019-01-14T02:06:43.690Z,99.90
2019-01-14T02:09:28.769Z,99.90
2019-01-14T02:12:13.302Z,99.90
2019-01-14T02:14:58.483Z,99.90
2019-01-14T02:17:43.636Z,99.90
2019-01-14T02:20:28.729Z,99.90
2019-01-14T02:23:13.588Z,99.90
2019-01-14T02:25:58.369Z,99.90
2019-01-14T02:28:43.235Z,99.90
2019-01-14T02:31:27.815Z,99.90
2019-01-14T02:34:12.863Z,99.90
2019-01-14T02:36:57.508Z,99.90
2019-01-14T02:39:42.549Z,99.90
2019-01-14T02:42:27.045Z,99.90
2019-01-14T02:45:12.983Z,99.90
2019-01-14T02:47:58.044Z,99.90
2019-01-14T02:50:42.539Z,99.90
2019-01-14T02:53:26.990Z,99.90
2019-01-14T02:56:11.668Z,99.90
2019-01-14T02:58:57.011Z,99.90
2019-01-14T03:01:41.816Z,99.90
2019-01-14T03:04:26.875Z,99.90
2019-01-14T03:07:11.580Z,99.90
2019-01-14T03:09:57.309Z,99.90
2019-01-14T03:12:41.971Z,99.90
2019-01-14T03:15:26.975Z,99.90
2019-01-14T03:18:12.041Z,99.90
2019-01-14T03:20:56.615Z,99.90
2019-01-14T03:23:41.233Z,99.90
2019-01-14T03:26:26.065Z,99.90
2019-01-14T03:29:11.113Z,99.90
2019-01-14T03:31:56.089Z,99.90
2019-01-14T03:34:40.954Z,99.90
2019-01-14T03:37:25.555Z,99.90
2019-01-14T03:40:12.558Z,99.90
2019-01-14T03:42:57.438Z,99.90
2019-01-14T03:45:42.436Z,99.90
2019-01-14T03:48:27.167Z,99.90
2019-01-14T03:51:12.153Z,99.90
2019-01-14T03:53:56.873Z,99.90
2019-01-14T03:56:41.890Z,99.90
2019-01-14T03:59:27.158Z,99.90
2019-01-14T04:02:12.048Z,99.90
2019-01-14T04:04:57.204Z,99.90
2019-01-14T04:07:41.700Z,99.90
2019-01-14T04:10:25.980Z,99.90
2019-01-14T04:13:10.575Z,99.90
2019-01-14T04:15:55.279Z,99.90
2019-01-14T04:18:40.495Z,99.90
2019-01-14T04:21:25.197Z,99.90
2019-01-14T04:24:09.885Z,99.90
2019-01-14T04:26:54.409Z,99.90
2019-01-14T04:29:38.869Z,99.90
2019-01-14T04:32:23.385Z,99.90
2019-01-14T04:35:09.516Z,99.90
2019-01-14T04:37:54.213Z,99.90
2019-01-14T04:40:39.547Z,99.90
2019-01-14T04:43:24.713Z,99.90
2019-01-14T04:46:09.258Z,99.90
2019-01-14T04:48:53.772Z,99.90
2019-01-14T04:51:38.433Z,99.90
2019-01-14T04:54:23.095Z,99.90
2019-01-14T04:57:07.554Z,99.90
2019-01-14T04:59:52.208Z,99.90
2019-01-14T05:02:36.773Z,99.90
2019-01-14T05:05:21.335Z,99.90
2019-01-14T05:08:06.418Z,99.90
2019-01-14T05:10:51.422Z,99.90
2019-01-14T05:13:36.002Z,99.90
2019-01-14T05:16:20.572Z,99.90
2019-01-14T05:19:05.127Z,99.90
2019-01-14T05:21:49.784Z,99.90
2019-01-14T05:24:34.394Z,99.90
2019-01-14T05:27:18.904Z,99.90
2019-01-14T05:30:07.267Z,99.90
2019-01-14T05:32:52.419Z,99.90
2019-01-14T05:35:37.343Z,99.90
2019-01-14T05:38:22.359Z,99.90
2019-01-14T05:41:06.979Z,99.90
2019-01-14T05:43:51.705Z,99.90
2019-01-14T05:46:36.453Z,99.90
2019-01-14T05:49:21.222Z,99.90
2019-01-14T05:52:06.103Z,99.90
2019-01-14T05:54:50.699Z,99.90
2019-01-14T05:57:35.418Z,99.90
2019-01-14T06:00:31.216Z,99.90
2019-01-14T06:03:16.028Z,99.90
2019-01-14T06:06:00.873Z,99.90
2019-01-14T06:08:45.489Z,99.90
2019-01-14T06:11:30.112Z,99.90
2019-01-14T06:14:14.529Z,99.90
2019-01-14T06:16:58.948Z,99.90
2019-01-14T06:19:44.060Z,99.90
2019-01-14T06:22:28.678Z,99.90
2019-01-14T06:25:14.111Z,99.90
2019-01-14T06:27:58.952Z,99.90
2019-01-14T06:30:43.602Z,99.90
2019-01-14T06:33:28.682Z,99.90
2019-01-14T06:36:13.729Z,99.90
2019-01-14T06:38:58.253Z,99.90
2019-01-14T06:41:42.855Z,99.90
2019-01-14T06:44:27.264Z,99.90
2019-01-14T06:47:12.333Z,99.90
2019-01-14T06:49:57.367Z,99.90
2019-01-14T06:52:42.215Z,99.90
2019-01-14T06:55:27.095Z,99.90
2019-01-14T06:58:12.120Z,99.90
2019-01-14T07:00:57.134Z,99.90
2019-01-14T07:03:41.794Z,99.90
2019-01-14T07:06:26.811Z,99.90
2019-01-14T07:09:11.779Z,99.90
2019-01-14T07:11:57.420Z,99.90
2019-01-14T07:14:42.407Z,99.90
2019-01-14T07:17:27.417Z,99.90
2019-01-14T07:20:13.167Z,99.90
2019-01-14T07:22:59.178Z,99.90
2019-01-14T07:25:43.893Z,99.90
2019-01-14T07:28:28.340Z,99.90
2019-01-14T07:31:13.090Z,99.90
2019-01-14T07:33:57.779Z,99.90
2019-01-14T07:36:42.384Z,99.90
2019-01-14T07:39:27.461Z,99.90
2019-01-14T07:42:11.998Z,99.90
2019-01-14T07:44:56.805Z,99.90
2019-01-14T07:47:41.628Z,99.90
2019-01-14T07:50:26.713Z,99.90
2019-01-14T07:53:11.258Z,99.90
2019-01-14T07:55:56.226Z,99.90
2019-01-14T07:58:41.169Z,99.90
2019-01-14T08:01:25.709Z,99.90
2019-01-14T08:04:10.535Z,99.90
2019-01-14T08:06:55.111Z,99.90
2019-01-14T08:09:40.272Z,99.90
2019-01-14T08:12:25.230Z,99.90
2019-01-14T08:15:13.843Z,99.90
2019-01-14T08:17:58.832Z,99.90
2019-01-14T08:20:43.561Z,99.90
2019-01-14T08:23:28.552Z,99.90
2019-01-14T08:26:12.983Z,99.90
2019-01-14T08:28:57.650Z,99.90
2019-01-14T08:31:42.330Z,99.90
2019-01-14T08:34:27.402Z,99.90
2019-01-14T08:37:12.313Z,99.90
2019-01-14T08:39:57.203Z,99.90
2019-01-14T08:42:41.999Z,99.90
2019-01-14T08:45:26.521Z,99.90
2019-01-14T08:48:11.705Z,99.90
2019-01-14T08:50:56.774Z,99.90
2019-01-14T08:53:41.443Z,99.90
2019-01-14T08:56:25.977Z,99.90
2019-01-14T08:59:11.020Z,99.90
2019-01-14T09:01:56.114Z,99.90
2019-01-14T09:04:41.037Z,99.90
2019-01-14T09:07:26.268Z,99.90
2019-01-14T09:10:14.522Z,99.90
2019-01-14T09:12:59.523Z,99.90
2019-01-14T09:15:44.746Z,99.90
2019-01-14T09:18:29.654Z,99.90
2019-01-14T09:21:14.877Z,99.90
2019-01-14T09:23:59.859Z,99.90
2019-01-14T09:26:45.109Z,99.40
2019-01-14T09:29:29.926Z,99.90
2019-01-14T09:32:14.603Z,99.60
2019-01-14T09:34:59.553Z,99.60
2019-01-14T09:37:44.672Z,99.70
2019-01-14T09:40:29.694Z,99.90
2019-01-14T09:43:14.245Z,98.80
2019-01-14T09:45:58.760Z,99.10
2019-01-14T09:48:43.223Z,98.70
2019-01-14T09:51:27.908Z,98.60
2019-01-14T09:54:12.345Z,98.50
2019-01-14T09:56:57.121Z,97.90
2019-01-14T09:59:41.701Z,98.60
2019-01-14T10:02:26.458Z,97.90
2019-01-14T10:05:13.630Z,97.40
2019-01-14T10:07:58.479Z,97.50
2019-01-14T10:10:43.050Z,97.60
2019-01-14T10:13:27.764Z,97.90
2019-01-14T10:16:12.931Z,97.90
2019-01-14T10:18:58.101Z,97.30
2019-01-14T10:21:43.096Z,96.20
2019-01-14T10:24:27.673Z,95.80
2019-01-14T10:27:12.610Z,95.70
2019-01-14T10:29:57.583Z,96.00
2019-01-14T10:32:42.095Z,95.30
2019-01-14T10:35:27.322Z,95.20
2019-01-14T10:38:12.449Z,95.40
2019-01-14T10:40:57.437Z,95.70
2019-01-14T10:43:42.009Z,95.10
2019-01-14T10:46:26.603Z,94.60
2019-01-14T10:49:11.179Z,95.30
2019-01-14T10:51:56.187Z,95.70
2019-01-14T10:54:40.717Z,95.00
2019-01-14T10:57:25.809Z,94.80
2019-01-14T11:00:25.011Z,94.20
2019-01-14T11:03:10.142Z,94.20
2019-01-14T11:05:55.073Z,93.80
2019-01-14T11:08:39.963Z,93.90
2019-01-14T11:11:25.071Z,93.30
2019-01-14T11:14:09.649Z,92.20
2019-01-14T11:16:54.530Z,92.30
2019-01-14T11:19:39.507Z,92.50
2019-01-14T11:22:24.362Z,91.60
2019-01-14T11:25:09.462Z,92.20
2019-01-14T11:27:54.753Z,91.40
2019-01-14T11:30:39.832Z,92.00
2019-01-14T11:33:24.639Z,92.20
2019-01-14T11:36:09.993Z,91.50
2019-01-14T11:38:55.095Z,91.80
2019-01-14T11:41:39.828Z,92.10
2019-01-14T11:44:24.587Z,92.00
2019-01-14T11:47:09.179Z,91.90
2019-01-14T11:49:53.856Z,91.80
2019-01-14T11:52:38.609Z,92.00
2019-01-14T11:55:23.562Z,91.20
2019-01-14T11:58:08.333Z,91.40
2019-01-14T12:00:54.028Z,91.50
2019-01-14T12:03:38.654Z,91.40
2019-01-14T12:06:23.184Z,91.80
2019-01-14T12:09:12.439Z,91.60
2019-01-14T12:11:56.046Z,91.60
2019-01-14T12:14:41.054Z,90.90
2019-01-14T12:17:26.054Z,91.20
2019-01-14T12:20:13.103Z,91.10
2019-01-14T12:22:57.972Z,91.00
2019-01-14T12:25:42.929Z,90.60
2019-01-14T12:28:28.206Z,90.80
2019-01-14T12:31:14.722Z,91.30
2019-01-14T12:33:59.931Z,91.50
2019-01-14T12:36:44.856Z,93.10
2019-01-14T12:39:29.993Z,95.40
2019-01-14T12:42:15.066Z,96.90
2019-01-14T12:45:00.220Z,98.10
2019-01-14T12:47:45.379Z,98.90
2019-01-14T12:50:30.483Z,99.90
2019-01-14T12:53:15.067Z,99.90
2019-01-14T12:56:00.102Z,99.40
2019-01-14T12:58:44.667Z,98.50
2019-01-14T13:01:29.668Z,98.90
2019-01-14T13:04:14.401Z,96.70
2019-01-14T13:07:01.594Z,96.00
2019-01-14T13:09:46.658Z,96.80
2019-01-14T13:12:31.822Z,96.20
2019-01-14T13:15:18.831Z,95.50
2019-01-14T13:18:05.409Z,94.70
2019-01-14T13:20:50.576Z,93.40
2019-01-14T13:23:35.557Z,92.00
2019-01-14T13:26:20.169Z,91.50
2019-01-14T13:29:05.107Z,91.50
2019-01-14T13:31:49.712Z,91.90
2019-01-14T13:34:34.283Z,93.10
2019-01-14T13:37:19.423Z,94.20
2019-01-14T13:40:08.075Z,95.20
2019-01-14T13:42:52.983Z,95.00
2019-01-14T13:45:37.703Z,95.40
2019-01-14T13:48:22.723Z,95.00
2019-01-14T13:51:07.694Z,95.60
2019-01-14T13:53:52.758Z,95.80
2019-01-14T13:56:37.756Z,95.30
2019-01-14T13:59:23.118Z,94.60
2019-01-14T14:02:08.057Z,93.90
2019-01-14T14:04:52.552Z,94.00
2019-01-14T14:07:37.460Z,93.10
2019-01-14T14:10:24.576Z,92.70
2019-01-14T14:13:09.556Z,92.00
2019-01-14T14:15:54.461Z,92.10
2019-01-14T14:18:39.725Z,91.90
2019-01-14T14:21:24.984Z,91.60
2019-01-14T14:24:10.048Z,91.60
2019-01-14T14:26:54.581Z,91.80
2019-01-14T14:29:39.443Z,91.00
2019-01-14T14:32:24.258Z,91.10
2019-01-14T14:35:09.398Z,91.60
2019-01-14T14:38:01.021Z,92.30
2019-01-14T14:40:41.192Z,92.70
2019-01-14T14:43:26.120Z,92.60
2019-01-14T14:46:11.135Z,93.00
2019-01-14T14:48:55.982Z,93.30
2019-01-14T14:51:40.495Z,92.80
2019-01-14T14:54:25.576Z,93.50
2019-01-14T14:57:10.842Z,93.10
2019-01-14T14:59:55.967Z,93.00
2019-01-14T15:02:41.335Z,91.90
2019-01-14T15:05:26.286Z,91.90
2019-01-14T15:08:11.336Z,92.30
2019-01-14T15:10:56.107Z,92.20
2019-01-14T15:13:40.782Z,92.30
2019-01-14T15:16:26.190Z,91.80
2019-01-14T15:19:11.046Z,91.90
2019-01-14T15:21:56.372Z,94.60
2019-01-14T15:24:41.336Z,95.90
2019-01-14T15:27:26.323Z,97.40
2019-01-14T15:30:18.096Z,98.10
2019-01-14T15:33:02.816Z,98.30
2019-01-14T15:35:48.522Z,98.60
2019-01-14T15:38:33.396Z,99.00
2019-01-14T15:41:18.791Z,98.90
2019-01-14T15:44:04.252Z,99.10
2019-01-14T15:46:49.283Z,99.70
2019-01-14T15:49:34.048Z,99.90
2019-01-14T15:52:18.933Z,99.70
2019-01-14T15:55:09.358Z,99.90
2019-01-14T15:57:54.356Z,99.70
2019-01-14T16:00:39.363Z,99.60
2019-01-14T16:03:24.267Z,99.70
2019-01-14T16:06:09.348Z,99.90
2019-01-14T16:08:53.948Z,99.60
2019-01-14T16:11:39.126Z,99.10
2019-01-14T16:14:24.411Z,98.70
2019-01-14T16:17:09.459Z,98.50
2019-01-14T16:19:54.448Z,98.10
2019-01-14T16:22:39.099Z,98.00
2019-01-14T16:25:24.230Z,97.60
2019-01-14T16:28:09.105Z,97.10
2019-01-14T16:30:54.290Z,97.00
2019-01-14T16:33:39.162Z,97.10
2019-01-14T16:36:23.936Z,96.60
2019-01-14T16:39:08.830Z,96.60
2019-01-14T16:41:54.147Z,96.50
2019-01-14T16:44:38.955Z,96.60
2019-01-14T16:47:24.111Z,96.50
2019-01-14T16:50:11.347Z,96.10
2019-01-14T16:52:56.311Z,96.40
2019-01-14T16:55:43.236Z,96.10
2019-01-14T16:58:27.926Z,96.30
2019-01-14T17:01:13.023Z,95.80
2019-01-14T17:03:58.035Z,95.50
2019-01-14T17:06:42.918Z,95.50
2019-01-14T17:09:27.582Z,95.60
2019-01-14T17:12:12.838Z,95.50
2019-01-14T17:14:57.776Z,96.00
2019-01-14T17:17:42.802Z,95.40
2019-01-14T17:20:27.931Z,95.40
2019-01-14T17:23:13.032Z,95.60
2019-01-14T17:25:57.947Z,95.40
2019-01-14T17:28:43.799Z,95.20
2019-01-14T17:31:28.711Z,95.50
2019-01-14T17:34:13.932Z,95.20
2019-01-14T17:36:59.606Z,95.20
2019-01-14T17:39:44.490Z,95.40
2019-01-14T17:42:29.575Z,95.70
2019-01-14T17:45:14.518Z,95.60
2019-01-14T17:47:59.668Z,95.80
2019-01-14T17:50:44.595Z,95.70
2019-01-14T17:53:29.644Z,95.70
2019-01-14T17:56:14.602Z,96.10
2019-01-14T17:58:59.272Z,96.30
2019-01-14T18:01:43.892Z,96.20
2019-01-14T18:04:28.883Z,96.10
2019-01-14T18:07:14.067Z,95.90
2019-01-14T18:09:58.811Z,96.20
2019-01-14T18:12:43.660Z,96.20
2019-01-14T18:15:28.518Z,96.60
2019-01-14T18:18:13.681Z,96.60
2019-01-14T18:21:05.295Z,96.90
2019-01-14T18:23:45.341Z,96.90
2019-01-14T18:26:30.478Z,97.00
2019-01-14T18:29:15.561Z,97.10
2019-01-14T18:32:00.886Z,97.20
2019-01-14T18:34:45.887Z,97.00
2019-01-14T18:37:31.045Z,97.40
2019-01-14T18:40:16.153Z,97.60
2019-01-14T18:43:01.223Z,97.50
2019-01-14T18:45:46.117Z,97.20
2019-01-14T18:48:31.099Z,96.90
2019-01-14T18:51:16.158Z,96.80
2019-01-14T18:54:01.212Z,96.90
2019-01-14T18:56:46.296Z,97.40
2019-01-14T18:59:31.379Z,97.60
2019-01-14T19:02:16.480Z,97.80
2019-01-14T19:05:01.854Z,97.70
2019-01-14T19:07:46.911Z,97.80
2019-01-14T19:10:32.260Z,98.00
2019-01-14T19:13:17.370Z,98.00
2019-01-14T19:16:02.925Z,98.20
2019-01-14T19:18:47.970Z,98.20
2019-01-14T19:21:33.481Z,98.10
2019-01-14T19:24:18.669Z,98.20
2019-01-14T19:27:03.931Z,98.40
2019-01-14T19:29:48.908Z,98.40
2019-01-14T19:32:38.380Z,98.20
2019-01-14T19:35:20.754Z,98.20
2019-01-14T19:38:05.872Z,98.20
2019-01-14T19:40:51.027Z,98.20
2019-01-14T19:43:36.140Z,98.30
2019-01-14T19:46:21.081Z,98.50
2019-01-14T19:49:06.514Z,98.50
2019-01-14T19:51:51.507Z,98.60
2019-01-14T19:54:36.840Z,99.10
2019-01-14T19:57:21.833Z,99.20
2019-01-14T20:00:13.789Z,98.80
2019-01-14T20:02:58.672Z,99.00
2019-01-14T20:05:44.154Z,98.80
2019-01-14T20:08:29.466Z,98.70
2019-01-14T20:11:14.615Z,98.60
2019-01-14T20:13:59.537Z,98.40
2019-01-14T20:16:46.922Z,98.30
2019-01-14T20:19:31.915Z,97.90
2019-01-14T20:22:17.029Z,97.90
2019-01-14T20:25:03.122Z,97.60
2019-01-14T20:27:47.978Z,97.50
2019-01-14T20:30:33.311Z,97.70
2019-01-14T20:33:19.592Z,97.80
2019-01-14T20:36:04.895Z,97.90
2019-01-14T20:38:49.972Z,97.80
2019-01-14T20:41:34.982Z,98.00
2019-01-14T20:44:20.171Z,97.80
2019-01-14T20:47:05.818Z,97.80
2019-01-14T20:49:50.848Z,97.70
2019-01-14T20:52:35.995Z,97.70
2019-01-14T20:55:20.856Z,97.50
2019-01-14T20:58:06.186Z,97.70
2019-01-14T21:00:51.235Z,97.30
2019-01-14T21:03:36.300Z,97.10
2019-01-14T21:06:22.457Z,97.30
2019-01-14T21:09:07.665Z,97.70
2019-01-14T21:11:52.841Z,97.60
2019-01-14T21:14:37.633Z,97.60
2019-01-14T21:17:22.872Z,97.40
2019-01-14T21:20:14.181Z,97.50
2019-01-14T21:22:58.907Z,97.30
2019-01-14T21:25:44.086Z,97.30
2019-01-14T21:28:29.060Z,97.30
2019-01-14T21:31:14.120Z,97.30
2019-01-14T21:33:59.137Z,97.30
2019-01-14T21:36:44.189Z,97.40
2019-01-14T21:39:29.313Z,97.40
2019-01-14T21:42:14.261Z,97.50
2019-01-14T21:44:59.501Z,97.40
2019-01-14T21:47:44.483Z,97.60
2019-01-14T21:50:29.347Z,97.90
2019-01-14T21:53:14.340Z,97.90
2019-01-14T21:55:59.208Z,98.10
2019-01-14T21:58:44.361Z,97.90
2019-01-14T22:01:29.593Z,97.90
2019-01-14T22:04:14.602Z,97.90
2019-01-14T22:06:59.715Z,97.90
2019-01-14T22:09:44.918Z,97.90
2019-01-14T22:12:29.896Z,98.10
2019-01-14T22:15:14.993Z,98.00
2019-01-14T22:17:59.747Z,98.20
2019-01-14T22:20:44.946Z,98.40
2019-01-14T22:23:30.069Z,98.50
2019-01-14T22:26:15.041Z,98.30
2019-01-14T22:28:59.991Z,98.40
2019-01-14T22:31:44.747Z,98.60
2019-01-14T22:34:29.967Z,98.50
2019-01-14T22:37:14.791Z,98.50
2019-01-14T22:39:59.667Z,98.30
2019-01-14T22:42:44.411Z,98.30
2019-01-14T22:45:29.584Z,98.40
2019-01-14T22:48:14.573Z,98.30
2019-01-14T22:50:59.561Z,98.40
2019-01-14T22:53:44.848Z,98.50
2019-01-14T22:56:29.986Z,98.20
2019-01-14T22:59:14.832Z,98.40
2019-01-14T23:01:59.699Z,98.90
2019-01-14T23:04:44.500Z,98.80
2019-01-14T23:07:29.314Z,99.00
2019-01-14T23:10:14.003Z,98.70
2019-01-14T23:12:58.773Z,98.70
2019-01-14T23:15:43.795Z,98.70
2019-01-14T23:18:28.450Z,98.70
2019-01-14T23:21:13.461Z,98.80
2019-01-14T23:23:58.272Z,99.00
2019-01-14T23:26:43.397Z,98.90
2019-01-14T23:29:28.343Z,98.70
2019-01-14T23:32:13.530Z,98.80
2019-01-14T23:34:58.584Z,98.80
2019-01-14T23:37:43.632Z,98.70
2019-01-14T23:40:28.246Z,98.80
2019-01-14T23:43:13.000Z,99.00
2019-01-14T23:45:58.218Z,99.10
2019-01-14T23:48:43.009Z,98.90
2019-01-14T23:51:28.257Z,99.10
2019-01-14T23:54:13.054Z,99.10
2019-01-14T23:56:57.701Z,99.00
2019-01-14T23:59:42.126Z,98.90
